Eagle — WBP2187 — position and weather

sailwx.info

Track history (hours):
 
Tides and Currents Weather Stations Pressure Air Temp Water Temp Dewpoint Dewpoint Depression Visibility Wind Speed Wind Dir Waves Ship Positions

Eagle

Owner: Harley Marine Services, INC, SEATTLE, WA. More information available from US FCC via Universal Licensing System and Coast Guard Vessel Documentation Center.

Last reported at 2016-Apr-29 20:07 UTC. Time now 2016-Apr-29 23:30 UTC.
Position N 47°17' W 122°25'.

Length 32 m; draft 4 m.

Type: Tow > 200 m length. MMSI: 366978690.

Date/timePositionNaut miles runAvg speedWind from/ knotsBaromVisibWave heightAir tempDewpointWater temp
2016-Apr-29 20:07N 47°17' W 122°25'1 2.6
2016-Apr-29 19:33N 47°17' W 122°27'1 1.4
2016-Apr-29 18:34N 47°18' W 122°28'6 6.4
2016-Apr-29 17:33N 47°23' W 122°22'7 6.7
2016-Apr-29 16:33N 47°29' W 122°26'7 7.3
2016-Apr-29 15:33N 47°36' W 122°28'7 7.3
2016-Apr-29 14:33N 47°44' W 122°28'7 6.8
2016-Apr-29 13:33N 47°50' W 122°28'6 5.8
2016-Apr-29 12:34N 47°56' W 122°32'5 5.4
2016-Apr-29 11:33N 47°60' W 122°37'5 5.5
2016-Apr-29 10:33N 48°05' W 122°40'6 4.7
2016-Apr-29 09:15N 48°10' W 122°46'10 5.6
2016-Apr-29 07:33N 48°19' W 122°47'6 6.2
2016-Apr-29 06:33N 48°25' W 122°45'5 5.4
2016-Apr-29 05:33N 48°30' W 122°44'4 4.4
2016-Apr-29 04:33N 48°35' W 122°45'4 3.9
2016-Apr-29 03:33N 48°39' W 122°44'5 5.2
2016-Apr-29 02:33N 48°44' W 122°46'6 5.7
2016-Apr-29 01:32N 48°49' W 122°44'1 0.2
2016-Apr-28 20:31N 48°50' W 122°43'0 0.0
2016-Apr-28 19:33N 48°50' W 122°43'0 0.0
2016-Apr-28 18:24N 48°50' W 122°43'0 0.0
2016-Apr-28 17:16N 48°50' W 122°43'0 0.0
2016-Apr-28 16:32N 48°50' W 122°43'0 0.0
2016-Apr-28 15:33N 48°50' W 122°43'0 0.0
2016-Apr-28 14:33N 48°50' W 122°43'0 0.0
2016-Apr-28 13:33N 48°50' W 122°43'0 0.0
2016-Apr-28 09:25N 48°50' W 122°43'0 0.1
2016-Apr-28 04:19N 48°49' W 122°44'4 5.6
2016-Apr-28 03:33N 48°45' W 122°45'8 7.6
2016-Apr-28 02:33N 48°38' W 122°44'8 7.7
2016-Apr-28 01:33N 48°30' W 122°44'6 5.9
2016-Apr-28 00:30N 48°24' W 122°44'4 4.7
2016-Apr-27 23:33N 48°19' W 122°46'18 5.4
2016-Apr-27 20:13N 48°02' W 122°37'5 7.4
2016-Apr-27 19:31N 47°58' W 122°33'6 5.9
2016-Apr-27 18:32N 47°53' W 122°28'5 5.5
2016-Apr-27 17:33N 47°48' W 122°26'6 6.0
2016-Apr-27 16:33N 47°42' W 122°27'5 5.4
2016-Apr-27 15:33N 47°37' W 122°24'3 2.6
2016-Apr-27 14:33N 47°35' W 122°21'1 1.1
2016-Apr-27 13:33N 47°34' W 122°21'0 0.0
2016-Apr-27 12:34N 47°34' W 122°21'0 0.0
2016-Apr-27 11:34N 47°34' W 122°21'0 0.0
2016-Apr-27 10:33N 47°34' W 122°21'0 0.0
2016-Apr-27 09:33N 47°34' W 122°21'0 0.0
2016-Apr-27 08:33N 47°34' W 122°21'0 0.0
2016-Apr-27 07:33N 47°34' W 122°21'0 0.0
2016-Apr-27 06:33N 47°34' W 122°21'0 0.0
2016-Apr-27 05:33N 47°34' W 122°21'0 0.0
2016-Apr-27 04:33N 47°34' W 122°21'0 0.0
2016-Apr-27 03:33N 47°34' W 122°21'0 0.0
2016-Apr-27 02:33N 47°34' W 122°21'0 0.0
2016-Apr-27 01:33N 47°34' W 122°21'0 0.0
2016-Apr-27 00:33N 47°34' W 122°21'0 0.0
2016-Apr-26 23:33N 47°34' W 122°21'0 0.0
2016-Apr-26 22:33N 47°34' W 122°21'0 0.0
2016-Apr-26 21:33N 47°34' W 122°21'0 0.0
2016-Apr-26 20:33N 47°34' W 122°21'0 0.0
2016-Apr-26 19:34N 47°34' W 122°21'0 0.0
2016-Apr-26 18:33N 47°34' W 122°21'0 0.0
2016-Apr-26 17:33N 47°34' W 122°21'0 0.0
2016-Apr-26 16:33N 47°34' W 122°21'0 0.0
2016-Apr-26 15:33N 47°34' W 122°21'0 0.0
2016-Apr-26 14:33N 47°34' W 122°21'0 0.0
2016-Apr-26 13:33N 47°34' W 122°21'0 0.0
2016-Apr-26 12:34N 47°34' W 122°21'0 0.0
2016-Apr-26 11:33N 47°34' W 122°21'0 0.0
2016-Apr-26 10:33N 47°34' W 122°21'0 0.0
2016-Apr-26 09:34N 47°34' W 122°21'0 0.0
2016-Apr-26 08:33N 47°34' W 122°21'0 0.0
2016-Apr-26 07:33N 47°34' W 122°21'0 0.0
2016-Apr-26 06:33N 47°34' W 122°21'0 0.0
2016-Apr-26 05:34N 47°34' W 122°21'0 0.0
2016-Apr-26 04:33N 47°34' W 122°21'0 0.0
2016-Apr-26 03:33N 47°34' W 122°21'0 0.0
2016-Apr-26 02:33N 47°34' W 122°21'0 0.0
2016-Apr-26 01:33N 47°34' W 122°21'0 0.0
2016-Apr-26 00:33N 47°34' W 122°21'0 0.0
2016-Apr-25 23:33N 47°34' W 122°21'0 0.0
2016-Apr-25 22:33N 47°34' W 122°21'0 0.0
2016-Apr-25 21:33N 47°34' W 122°21'0 0.0
2016-Apr-25 20:33N 47°34' W 122°21'1 0.8
2016-Apr-25 19:33N 47°35' W 122°21'2 2.0
2016-Apr-25 18:33N 47°36' W 122°23'5 4.9
2016-Apr-25 17:33N 47°31' W 122°25'8 8.0
2016-Apr-25 16:33N 47°24' W 122°21'7 7.0
2016-Apr-25 15:33N 47°18' W 122°26'2 2.2
2016-Apr-25 14:27N 47°17' W 122°23'0 0.0
2016-Apr-25 06:33N 47°17' W 122°23'0 0.0
2016-Apr-25 05:26N 47°17' W 122°23'0 0.0
2016-Apr-25 02:21N 47°17' W 122°23'0 0.0
2016-Apr-25 01:16N 47°17' W 122°23'0 0.0
2016-Apr-25 00:25N 47°17' W 122°23'0 0.0
2016-Apr-24 20:33N 47°17' W 122°23'1 0.3
2016-Apr-24 16:12N 47°17' W 122°25'2 2.4
2016-Apr-24 15:34N 47°17' W 122°27'3 2.7
2016-Apr-24 14:34N 47°20' W 122°28'5 4.9
2016-Apr-24 13:33N 47°23' W 122°22'3 3.4
2016-Apr-24 12:33N 47°26' W 122°24'4 3.5
2016-Apr-24 11:33N 47°30' W 122°26'4 4.3
2016-Apr-24 10:34N 47°34' W 122°28'5 4.9
2016-Apr-24 09:33N 47°38' W 122°29'4 4.1
2016-Apr-24 08:33N 47°43' W 122°28'4 3.9
2016-Apr-24 07:33N 47°46' W 122°27'4 3.8
2016-Apr-24 06:33N 47°50' W 122°28'4 4.3
2016-Apr-24 05:33N 47°54' W 122°30'4 4.4
2016-Apr-24 04:33N 47°57' W 122°35'15 4.9
2016-Apr-24 01:33N 48°10' W 122°46'7 6.4
2016-Apr-24 00:32N 48°11' W 122°56'7 6.7
2016-Apr-23 23:33N 48°12' W 123°06'7 6.9
2016-Apr-23 22:33N 48°12' W 123°16'7 6.9
2016-Apr-23 21:33N 48°12' W 123°26'6 5.8
2016-Apr-23 20:33N 48°12' W 123°35'5 5.1
2016-Apr-23 19:34N 48°12' W 123°42'5 4.8
2016-Apr-23 18:33N 48°12' W 123°50'5 5.2
2016-Apr-23 17:31N 48°13' W 123°57'103 4.7
2016-Apr-22 19:31N 46°45' W 125°15'10 7.2
2016-Apr-22 18:06N 46°35' W 125°15'5 7.2
2016-Apr-22 17:23N 46°30' W 125°15'8 7.1
2016-Apr-22 16:18N 46°22' W 125°14'8 6.9
2016-Apr-22 15:09N 46°14' W 125°14'4 6.7
2016-Apr-22 14:33N 46°10' W 125°14'6 6.3
2016-Apr-22 13:33N 46°04' W 125°14'6 6.2
2016-Apr-22 12:32N 45°57' W 125°14'6 6.3
2016-Apr-22 11:32N 45°51' W 125°14'8 6.6
2016-Apr-22 10:18N 45°43' W 125°13'5 6.4
2016-Apr-22 09:32N 45°38' W 125°12'6 6.5
2016-Apr-22 08:33N 45°32' W 125°11'7 6.4
2016-Apr-22 07:28N 45°25' W 125°10'280 6.6
2016-Apr-20 13:13N 40°44' W 124°60'  
Track history (hours):
 
Tides and Currents Weather Stations Pressure Air Temp Water Temp Dewpoint Dewpoint Depression Visibility Wind Speed Wind Dir Waves Ship Positions

Eagle

Owner: Harley Marine Services, INC, SEATTLE, WA. More information available from US FCC via Universal Licensing System and Coast Guard Vessel Documentation Center.

Last reported at 2016-Apr-29 20:07 UTC. Time now 2016-Apr-29 23:30 UTC.
Position N 47°17' W 122°25'.

Length 32 m; draft 4 m.

Type: Tow > 200 m length. MMSI: 366978690.

Date/timePositionNaut miles runAvg speedWind from/ knotsBaromVisibWave heightAir tempDewpointWater temp
2016-Apr-29 20:07N 47°17' W 122°25'1 2.6
2016-Apr-29 19:33N 47°17' W 122°27'1 1.4
2016-Apr-29 18:34N 47°18' W 122°28'6 6.4
2016-Apr-29 17:33N 47°23' W 122°22'7 6.7
2016-Apr-29 16:33N 47°29' W 122°26'7 7.3
2016-Apr-29 15:33N 47°36' W 122°28'7 7.3
2016-Apr-29 14:33N 47°44' W 122°28'7 6.8
2016-Apr-29 13:33N 47°50' W 122°28'6 5.8
2016-Apr-29 12:34N 47°56' W 122°32'5 5.4
2016-Apr-29 11:33N 47°60' W 122°37'5 5.5
2016-Apr-29 10:33N 48°05' W 122°40'6 4.7
2016-Apr-29 09:15N 48°10' W 122°46'10 5.6
2016-Apr-29 07:33N 48°19' W 122°47'6 6.2
2016-Apr-29 06:33N 48°25' W 122°45'5 5.4
2016-Apr-29 05:33N 48°30' W 122°44'4 4.4
2016-Apr-29 04:33N 48°35' W 122°45'4 3.9
2016-Apr-29 03:33N 48°39' W 122°44'5 5.2
2016-Apr-29 02:33N 48°44' W 122°46'6 5.7
2016-Apr-29 01:32N 48°49' W 122°44'1 0.2
2016-Apr-28 20:31N 48°50' W 122°43'0 0.0
2016-Apr-28 19:33N 48°50' W 122°43'0 0.0
2016-Apr-28 18:24N 48°50' W 122°43'0 0.0
2016-Apr-28 17:16N 48°50' W 122°43'0 0.0
2016-Apr-28 16:32N 48°50' W 122°43'0 0.0
2016-Apr-28 15:33N 48°50' W 122°43'0 0.0
2016-Apr-28 14:33N 48°50' W 122°43'0 0.0
2016-Apr-28 13:33N 48°50' W 122°43'0 0.0
2016-Apr-28 09:25N 48°50' W 122°43'0 0.1
2016-Apr-28 04:19N 48°49' W 122°44'4 5.6
2016-Apr-28 03:33N 48°45' W 122°45'8 7.6
2016-Apr-28 02:33N 48°38' W 122°44'8 7.7
2016-Apr-28 01:33N 48°30' W 122°44'6 5.9
2016-Apr-28 00:30N 48°24' W 122°44'4 4.7
2016-Apr-27 23:33N 48°19' W 122°46'18 5.4
2016-Apr-27 20:13N 48°02' W 122°37'5 7.4
2016-Apr-27 19:31N 47°58' W 122°33'6 5.9
2016-Apr-27 18:32N 47°53' W 122°28'5 5.5
2016-Apr-27 17:33N 47°48' W 122°26'6 6.0
2016-Apr-27 16:33N 47°42' W 122°27'5 5.4
2016-Apr-27 15:33N 47°37' W 122°24'3 2.6
2016-Apr-27 14:33N 47°35' W 122°21'1 1.1
2016-Apr-27 13:33N 47°34' W 122°21'0 0.0
2016-Apr-27 12:34N 47°34' W 122°21'0 0.0
2016-Apr-27 11:34N 47°34' W 122°21'0 0.0
2016-Apr-27 10:33N 47°34' W 122°21'0 0.0
2016-Apr-27 09:33N 47°34' W 122°21'0 0.0
2016-Apr-27 08:33N 47°34' W 122°21'0 0.0
2016-Apr-27 07:33N 47°34' W 122°21'0 0.0
2016-Apr-27 06:33N 47°34' W 122°21'0 0.0
2016-Apr-27 05:33N 47°34' W 122°21'0 0.0
2016-Apr-27 04:33N 47°34' W 122°21'0 0.0
2016-Apr-27 03:33N 47°34' W 122°21'0 0.0
2016-Apr-27 02:33N 47°34' W 122°21'0 0.0
2016-Apr-27 01:33N 47°34' W 122°21'0 0.0
2016-Apr-27 00:33N 47°34' W 122°21'0 0.0
2016-Apr-26 23:33N 47°34' W 122°21'0 0.0
2016-Apr-26 22:33N 47°34' W 122°21'0 0.0
2016-Apr-26 21:33N 47°34' W 122°21'0 0.0
2016-Apr-26 20:33N 47°34' W 122°21'0 0.0
2016-Apr-26 19:34N 47°34' W 122°21'0 0.0
2016-Apr-26 18:33N 47°34' W 122°21'0 0.0
2016-Apr-26 17:33N 47°34' W 122°21'0 0.0
2016-Apr-26 16:33N 47°34' W 122°21'0 0.0
2016-Apr-26 15:33N 47°34' W 122°21'0 0.0
2016-Apr-26 14:33N 47°34' W 122°21'0 0.0
2016-Apr-26 13:33N 47°34' W 122°21'0 0.0
2016-Apr-26 12:34N 47°34' W 122°21'0 0.0
2016-Apr-26 11:33N 47°34' W 122°21'0 0.0
2016-Apr-26 10:33N 47°34' W 122°21'0 0.0
2016-Apr-26 09:34N 47°34' W 122°21'0 0.0
2016-Apr-26 08:33N 47°34' W 122°21'0 0.0
2016-Apr-26 07:33N 47°34' W 122°21'0 0.0
2016-Apr-26 06:33N 47°34' W 122°21'0 0.0
2016-Apr-26 05:34N 47°34' W 122°21'0 0.0
2016-Apr-26 04:33N 47°34' W 122°21'0 0.0
2016-Apr-26 03:33N 47°34' W 122°21'0 0.0
2016-Apr-26 02:33N 47°34' W 122°21'0 0.0
2016-Apr-26 01:33N 47°34' W 122°21'0 0.0
2016-Apr-26 00:33N 47°34' W 122°21'0 0.0
2016-Apr-25 23:33N 47°34' W 122°21'0 0.0
2016-Apr-25 22:33N 47°34' W 122°21'0 0.0
2016-Apr-25 21:33N 47°34' W 122°21'0 0.0
2016-Apr-25 20:33N 47°34' W 122°21'1 0.8
2016-Apr-25 19:33N 47°35' W 122°21'2 2.0
2016-Apr-25 18:33N 47°36' W 122°23'5 4.9
2016-Apr-25 17:33N 47°31' W 122°25'8 8.0
2016-Apr-25 16:33N 47°24' W 122°21'7 7.0
2016-Apr-25 15:33N 47°18' W 122°26'2 2.2
2016-Apr-25 14:27N 47°17' W 122°23'0 0.0
2016-Apr-25 06:33N 47°17' W 122°23'0 0.0
2016-Apr-25 05:26N 47°17' W 122°23'0 0.0
2016-Apr-25 02:21N 47°17' W 122°23'0 0.0
2016-Apr-25 01:16N 47°17' W 122°23'0 0.0
2016-Apr-25 00:25N 47°17' W 122°23'0 0.0
2016-Apr-24 20:33N 47°17' W 122°23'1 0.3
2016-Apr-24 16:12N 47°17' W 122°25'2 2.4
2016-Apr-24 15:34N 47°17' W 122°27'3 2.7
2016-Apr-24 14:34N 47°20' W 122°28'5 4.9
2016-Apr-24 13:33N 47°23' W 122°22'3 3.4
2016-Apr-24 12:33N 47°26' W 122°24'4 3.5
2016-Apr-24 11:33N 47°30' W 122°26'4 4.3
2016-Apr-24 10:34N 47°34' W 122°28'5 4.9
2016-Apr-24 09:33N 47°38' W 122°29'4 4.1
2016-Apr-24 08:33N 47°43' W 122°28'4 3.9
2016-Apr-24 07:33N 47°46' W 122°27'4 3.8
2016-Apr-24 06:33N 47°50' W 122°28'4 4.3
2016-Apr-24 05:33N 47°54' W 122°30'4 4.4
2016-Apr-24 04:33N 47°57' W 122°35'15 4.9
2016-Apr-24 01:33N 48°10' W 122°46'7 6.4
2016-Apr-24 00:32N 48°11' W 122°56'7 6.7
2016-Apr-23 23:33N 48°12' W 123°06'7 6.9
2016-Apr-23 22:33N 48°12' W 123°16'7 6.9
2016-Apr-23 21:33N 48°12' W 123°26'6 5.8
2016-Apr-23 20:33N 48°12' W 123°35'5 5.1
2016-Apr-23 19:34N 48°12' W 123°42'5 4.8
2016-Apr-23 18:33N 48°12' W 123°50'5 5.2
2016-Apr-23 17:31N 48°13' W 123°57'103 4.7
2016-Apr-22 19:31N 46°45' W 125°15'10 7.2
2016-Apr-22 18:06N 46°35' W 125°15'5 7.2
2016-Apr-22 17:23N 46°30' W 125°15'8 7.1
2016-Apr-22 16:18N 46°22' W 125°14'8 6.9
2016-Apr-22 15:09N 46°14' W 125°14'4 6.7
2016-Apr-22 14:33N 46°10' W 125°14'6 6.3
2016-Apr-22 13:33N 46°04' W 125°14'6 6.2
2016-Apr-22 12:32N 45°57' W 125°14'6 6.3
2016-Apr-22 11:32N 45°51' W 125°14'8 6.6
2016-Apr-22 10:18N 45°43' W 125°13'5 6.4
2016-Apr-22 09:32N 45°38' W 125°12'6 6.5
2016-Apr-22 08:33N 45°32' W 125°11'7 6.4
2016-Apr-22 07:28N 45°25' W 125°10'280 6.6
2016-Apr-20 13:13N 40°44' W 124°60'  

Dump ship's entire track history